sensor_id;sensor_type;location;lat;lon;timestamp;pressure;altitude;pressure_sealevel;temperature;humidity
1736;BME280;865;53.672;10.250;2024-03-25T00:01:36;99477.34;;;5.01;100.00
1736;BME280;865;53.672;10.250;2024-03-25T00:04:01;99485.03;;;5.05;100.00
1736;BME280;865;53.672;10.250;2024-03-25T00:06:27;99492.75;;;5.08;100.00
1736;BME280;865;53.672;10.250;2024-03-25T00:08:52;99484.06;;;5.12;100.00
1736;BME280;865;53.672;10.250;2024-03-25T00:11:18;99490.19;;;5.05;100.00
1736;BME280;865;53.672;10.250;2024-03-25T00:13:43;99499.69;;;5.04;100.00
1736;BME280;865;53.672;10.250;2024-03-25T00:16:09;99498.78;;;5.07;100.00
1736;BME280;865;53.672;10.250;2024-03-25T00:18:34;99496.38;;;4.97;100.00
1736;BME280;865;53.672;10.250;2024-03-25T00:21:00;99502.41;;;4.96;100.00
1736;BME280;865;53.672;10.250;2024-03-25T00:23:25;99504.13;;;4.97;100.00
1736;BME280;865;53.672;10.250;2024-03-25T00:25:51;99508.41;;;4.98;100.00
1736;BME280;865;53.672;10.250;2024-03-25T00:28:17;99505.75;;;5.01;100.00
1736;BME280;865;53.672;10.250;2024-03-25T00:30:44;99511.88;;;4.97;100.00
1736;BME280;865;53.672;10.250;2024-03-25T00:33:10;99519.69;;;4.93;100.00
1736;BME280;865;53.672;10.250;2024-03-25T00:35:36;99521.47;;;4.89;100.00
1736;BME280;865;53.672;10.250;2024-03-25T00:38:02;99521.38;;;4.95;100.00
1736;BME280;865;53.672;10.250;2024-03-25T00:40:27;99530.59;;;5.12;100.00
1736;BME280;865;53.672;10.250;2024-03-25T00:42:53;99531.59;;;5.01;100.00
1736;BME280;865;53.672;10.250;2024-03-25T00:45:18;99539.56;;;4.89;100.00
1736;BME280;865;53.672;10.250;2024-03-25T00:47:44;99544.84;;;4.83;100.00
1736;BME280;865;53.672;10.250;2024-03-25T00:50:09;99544.59;;;4.98;100.00
1736;BME280;865;53.672;10.250;2024-03-25T00:52:35;99538.69;;;4.90;100.00
1736;BME280;865;53.672;10.250;2024-03-25T00:55:01;99546.31;;;4.96;100.00
1736;BME280;865;53.672;10.250;2024-03-25T00:57:27;99542.03;;;4.95;100.00
1736;BME280;865;53.672;10.250;2024-03-25T00:59:55;99548.00;;;4.99;100.00
1736;BME280;865;53.672;10.250;2024-03-25T01:02:20;99559.19;;;4.99;100.00
1736;BME280;865;53.672;10.250;2024-03-25T01:04:46;99556.66;;;4.98;100.00
1736;BME280;865;53.672;10.250;2024-03-25T01:07:12;99547.25;;;4.94;100.00
1736;BME280;865;53.672;10.250;2024-03-25T01:09:37;99560.09;;;4.98;100.00
1736;BME280;865;53.672;10.250;2024-03-25T01:12:04;99554.06;;;4.96;100.00
1736;BME280;865;53.672;10.250;2024-03-25T01:14:29;99566.09;;;5.00;100.00
1736;BME280;865;53.672;10.250;2024-03-25T01:16:55;99564.50;;;4.90;100.00
1736;BME280;865;53.672;10.250;2024-03-25T01:19:21;99566.94;;;5.01;100.00
1736;BME280;865;53.672;10.250;2024-03-25T01:21:46;99564.47;;;4.95;100.00
1736;BME280;865;53.672;10.250;2024-03-25T01:24:12;99570.41;;;4.98;100.00
1736;BME280;865;53.672;10.250;2024-03-25T01:26:38;99576.56;;;4.91;100.00
1736;BME280;865;53.672;10.250;2024-03-25T01:29:03;99564.47;;;4.93;100.00
1736;BME280;865;53.672;10.250;2024-03-25T01:31:28;99574.00;;;4.91;100.00
1736;BME280;865;53.672;10.250;2024-03-25T01:33:54;99571.47;;;4.88;100.00
1736;BME280;865;53.672;10.250;2024-03-25T01:36:19;99581.78;;;4.88;100.00
1736;BME280;865;53.672;10.250;2024-03-25T01:38:45;99579.91;;;4.96;100.00
1736;BME280;865;53.672;10.250;2024-03-25T01:41:11;99579.88;;;4.99;100.00
1736;BME280;865;53.672;10.250;2024-03-25T01:43:38;99582.53;;;4.95;100.00
1736;BME280;865;53.672;10.250;2024-03-25T01:46:04;99578.47;;;4.80;100.00
1736;BME280;865;53.672;10.250;2024-03-25T01:48:31;99584.31;;;4.91;100.00
1736;BME280;865;53.672;10.250;2024-03-25T01:50:57;99587.91;;;4.81;100.00
1736;BME280;865;53.672;10.250;2024-03-25T01:53:24;99591.28;;;4.85;100.00
1736;BME280;865;53.672;10.250;2024-03-25T01:55:52;99602.41;;;4.91;100.00
1736;BME280;865;53.672;10.250;2024-03-25T01:58:20;99592.09;;;4.91;100.00
1736;BME280;865;53.672;10.250;2024-03-25T02:00:46;99596.31;;;4.95;100.00
1736;BME280;865;53.672;10.250;2024-03-25T02:03:13;99597.16;;;4.97;100.00
1736;BME280;865;53.672;10.250;2024-03-25T02:05:38;99585.00;;;5.02;100.00
1736;BME280;865;53.672;10.250;2024-03-25T02:08:05;99597.22;;;4.93;100.00
1736;BME280;865;53.672;10.250;2024-03-25T02:10:32;99591.16;;;4.95;100.00
1736;BME280;865;53.672;10.250;2024-03-25T02:12:58;99598.91;;;4.95;100.00
1736;BME280;865;53.672;10.250;2024-03-25T02:15:23;99599.59;;;5.05;100.00
1736;BME280;865;53.672;10.250;2024-03-25T02:17:52;99606.56;;;5.01;100.00
1736;BME280;865;53.672;10.250;2024-03-25T02:20:17;99605.56;;;5.10;100.00
1736;BME280;865;53.672;10.250;2024-03-25T02:22:43;99606.78;;;4.85;100.00
1736;BME280;865;53.672;10.250;2024-03-25T02:25:09;99610.84;;;5.02;100.00
1736;BME280;865;53.672;10.250;2024-03-25T02:27:38;99614.25;;;5.06;100.00
1736;BME280;865;53.672;10.250;2024-03-25T02:30:09;99612.41;;;5.11;100.00
1736;BME280;865;53.672;10.250;2024-03-25T02:32:36;99614.06;;;5.17;100.00
1736;BME280;865;53.672;10.250;2024-03-25T02:35:10;99618.53;;;5.07;100.00
1736;BME280;865;53.672;10.250;2024-03-25T02:37:38;99616.84;;;5.06;100.00
1736;BME280;865;53.672;10.250;2024-03-25T02:40:05;99615.09;;;5.05;100.00
1736;BME280;865;53.672;10.250;2024-03-25T02:42:33;99623.75;;;5.02;100.00
1736;BME280;865;53.672;10.250;2024-03-25T02:44:58;99621.22;;;5.01;100.00
1736;BME280;865;53.672;10.250;2024-03-25T02:47:25;99621.22;;;4.99;100.00
1736;BME280;865;53.672;10.250;2024-03-25T02:49:50;99634.03;;;5.07;100.00
1736;BME280;865;53.672;10.250;2024-03-25T02:52:17;99623.59;;;5.13;100.00
1736;BME280;865;53.672;10.250;2024-03-25T02:54:43;99632.34;;;5.05;100.00
1736;BME280;865;53.672;10.250;2024-03-25T02:57:09;99641.84;;;5.02;100.00
1736;BME280;865;53.672;10.250;2024-03-25T02:59:34;99647.16;;;4.93;100.00
1736;BME280;865;53.672;10.250;2024-03-25T03:02:00;99640.19;;;4.98;100.00
1736;BME280;865;53.672;10.250;2024-03-25T03:04:25;99642.78;;;5.00;100.00
1736;BME280;865;53.672;10.250;2024-03-25T03:06:51;99650.41;;;5.08;100.00
1736;BME280;865;53.672;10.250;2024-03-25T03:09:16;99648.84;;;4.97;100.00
1736;BME280;865;53.672;10.250;2024-03-25T03:11:42;99660.19;;;4.86;100.00
1736;BME280;865;53.672;10.250;2024-03-25T03:14:07;99669.13;;;4.62;100.00
1736;BME280;865;53.672;10.250;2024-03-25T03:16:33;99671.84;;;4.52;100.00
1736;BME280;865;53.672;10.250;2024-03-25T03:18:58;99682.81;;;4.67;100.00
1736;BME280;865;53.672;10.250;2024-03-25T03:21:24;99679.59;;;4.52;100.00
1736;BME280;865;53.672;10.250;2024-03-25T03:23:49;99678.63;;;4.60;100.00
1736;BME280;865;53.672;10.250;2024-03-25T03:26:15;99690.00;;;4.46;100.00
1736;BME280;865;53.672;10.250;2024-03-25T03:28:40;99694.31;;;4.43;100.00
1736;BME280;865;53.672;10.250;2024-03-25T03:31:06;99698.63;;;4.44;100.00
1736;BME280;865;53.672;10.250;2024-03-25T03:33:32;99696.94;;;4.40;100.00
1736;BME280;865;53.672;10.250;2024-03-25T03:35:57;99698.47;;;4.54;100.00
1736;BME280;865;53.672;10.250;2024-03-25T03:38:23;99702.88;;;4.48;100.00
1736;BME280;865;53.672;10.250;2024-03-25T03:41:02;99708.09;;;4.43;100.00
1736;BME280;865;53.672;10.250;2024-03-25T03:43:28;99716.84;;;4.30;100.00
1736;BME280;865;53.672;10.250;2024-03-25T03:45:54;99720.16;;;4.41;100.00
1736;BME280;865;53.672;10.250;2024-03-25T03:48:19;99728.78;;;4.37;100.00
1736;BME280;865;53.672;10.250;2024-03-25T03:50:45;99728.75;;;4.43;100.00
1736;BME280;865;53.672;10.250;2024-03-25T03:53:11;99729.53;;;4.50;100.00
1736;BME280;865;53.672;10.250;2024-03-25T03:55:36;99737.22;;;4.56;100.00
1736;BME280;865;53.672;10.250;2024-03-25T03:58:02;99738.06;;;4.56;100.00
1736;BME280;865;53.672;10.250;2024-03-25T04:00:28;99735.59;;;4.47;100.00
1736;BME280;865;53.672;10.250;2024-03-25T04:02:54;99736.31;;;4.59;100.00
1736;BME280;865;53.672;10.250;2024-03-25T04:05:19;99738.91;;;4.59;100.00
1736;BME280;865;53.672;10.250;2024-03-25T04:07:45;99745.72;;;4.63;100.00
1736;BME280;865;53.672;10.250;2024-03-25T04:10:11;99749.28;;;4.55;100.00
1736;BME280;865;53.672;10.250;2024-03-25T04:12:37;99753.47;;;4.64;100.00
1736;BME280;865;53.672;10.250;2024-03-25T04:15:04;99758.59;;;4.66;100.00
1736;BME280;865;53.672;10.250;2024-03-25T04:17:30;99756.13;;;4.56;100.00
1736;BME280;865;53.672;10.250;2024-03-25T04:19:58;99759.59;;;4.55;100.00
1736;BME280;865;53.672;10.250;2024-03-25T04:22:25;99756.97;;;4.59;100.00
1736;BME280;865;53.672;10.250;2024-03-25T04:24:51;99766.53;;;4.49;100.00
1736;BME280;865;53.672;10.250;2024-03-25T04:27:16;99773.56;;;4.36;100.00
1736;BME280;865;53.672;10.250;2024-03-25T04:29:46;99769.94;;;4.55;100.00
1736;BME280;865;53.672;10.250;2024-03-25T04:32:12;99775.13;;;4.51;100.00
1736;BME280;865;53.672;10.250;2024-03-25T04:34:37;99778.59;;;4.50;100.00
1736;BME280;865;53.672;10.250;2024-03-25T04:37:03;99788.91;;;4.48;100.00
1736;BME280;865;53.672;10.250;2024-03-25T04:39:30;99789.81;;;4.47;100.00
1736;BME280;865;53.672;10.250;2024-03-25T04:41:55;99793.31;;;4.42;100.00
1736;BME280;865;53.672;10.250;2024-03-25T04:44:21;99795.84;;;4.46;100.00
1736;BME280;865;53.672;10.250;2024-03-25T04:46:47;99802.75;;;4.44;100.00
1736;BME280;865;53.672;10.250;2024-03-25T04:49:12;99807.06;;;4.42;100.00
1736;BME280;865;53.672;10.250;2024-03-25T04:51:38;99811.38;;;4.43;100.00
1736;BME280;865;53.672;10.250;2024-03-25T04:54:04;99815.75;;;4.35;100.00
1736;BME280;865;53.672;10.250;2024-03-25T04:56:29;99820.84;;;4.41;100.00
1736;BME280;865;53.672;10.250;2024-03-25T04:58:57;99825.13;;;4.42;100.00
1736;BME280;865;53.672;10.250;2024-03-25T05:01:27;99825.09;;;4.47;100.00
1736;BME280;865;53.672;10.250;2024-03-25T05:03:52;99832.81;;;4.50;100.00
1736;BME280;865;53.672;10.250;2024-03-25T05:06:18;99833.06;;;4.25;100.00
1736;BME280;865;53.672;10.250;2024-03-25T05:08:43;99838.22;;;4.25;100.00
1736;BME280;865;53.672;10.250;2024-03-25T05:11:09;99839.00;;;4.32;100.00
1736;BME280;865;53.672;10.250;2024-03-25T05:13:34;99843.34;;;4.28;100.00
1736;BME280;865;53.672;10.250;2024-03-25T05:16:00;99840.78;;;4.24;100.00
1736;BME280;865;53.672;10.250;2024-03-25T05:18:25;99839.06;;;4.26;100.00
1736;BME280;865;53.672;10.250;2024-03-25T05:20:51;99839.84;;;4.34;100.00
1736;BME280;865;53.672;10.250;2024-03-25T05:23:16;99838.06;;;4.39;100.00
1736;BME280;865;53.672;10.250;2024-03-25T05:25:42;99843.38;;;4.25;100.00
1736;BME280;865;53.672;10.250;2024-03-25T05:28:07;99840.78;;;4.27;100.00
1736;BME280;865;53.672;10.250;2024-03-25T05:30:33;99850.19;;;4.31;100.00
1736;BME280;865;53.672;10.250;2024-03-25T05:32:58;99849.41;;;4.26;100.00
1736;BME280;865;53.672;10.250;2024-03-25T05:35:24;99852.81;;;4.29;100.00
1736;BME280;865;53.672;10.250;2024-03-25T05:37:49;99862.28;;;4.27;100.00
1736;BME280;865;53.672;10.250;2024-03-25T05:40:15;99859.78;;;4.20;100.00
1736;BME280;865;53.672;10.250;2024-03-25T05:42:44;99875.22;;;4.23;100.00
1736;BME280;865;53.672;10.250;2024-03-25T05:45:09;99876.19;;;4.11;100.00
1736;BME280;865;53.672;10.250;2024-03-25T05:47:35;99874.44;;;4.13;100.00
1736;BME280;865;53.672;10.250;2024-03-25T05:50:01;99881.34;;;4.09;100.00
1736;BME280;865;53.672;10.250;2024-03-25T05:52:28;99887.31;;;4.18;100.00
1736;BME280;865;53.672;10.250;2024-03-25T05:54:54;99888.94;;;4.28;100.00
1736;BME280;865;53.672;10.250;2024-03-25T05:57:19;99896.59;;;4.42;100.00
1736;BME280;865;53.672;10.250;2024-03-25T05:59:46;99901.88;;;4.26;100.00
1736;BME280;865;53.672;10.250;2024-03-25T06:02:11;99900.97;;;4.32;100.00
1736;BME280;865;53.672;10.250;2024-03-25T06:04:37;99907.78;;;4.39;100.00
1736;BME280;865;53.672;10.250;2024-03-25T06:07:02;99912.06;;;4.46;100.00
1736;BME280;865;53.672;10.250;2024-03-25T06:09:28;99912.16;;;4.32;100.00
1736;BME280;865;53.672;10.250;2024-03-25T06:11:54;99920.69;;;4.39;100.00
1736;BME280;865;53.672;10.250;2024-03-25T06:14:19;99925.06;;;4.31;100.00
1736;BME280;865;53.672;10.250;2024-03-25T06:16:44;99908.56;;;4.49;100.00
1736;BME280;865;53.672;10.250;2024-03-25T06:19:10;99916.22;;;4.61;100.00
1736;BME280;865;53.672;10.250;2024-03-25T06:21:35;99913.69;;;4.58;100.00
1736;BME280;865;53.672;10.250;2024-03-25T06:24:01;99929.16;;;4.58;100.00
1736;BME280;865;53.672;10.250;2024-03-25T06:26:26;99930.75;;;4.71;100.00
1736;BME280;865;53.672;10.250;2024-03-25T06:28:52;99939.28;;;4.81;100.00
1736;BME280;865;53.672;10.250;2024-03-25T06:31:17;99942.13;;;4.50;100.00
1736;BME280;865;53.672;10.250;2024-03-25T06:34:02;99947.22;;;4.61;100.00
1736;BME280;865;53.672;10.250;2024-03-25T06:36:41;99947.22;;;4.60;100.00
1736;BME280;865;53.672;10.250;2024-03-25T06:39:07;99943.78;;;4.57;100.00
1736;BME280;865;53.672;10.250;2024-03-25T06:42:03;99942.09;;;4.56;100.00
1736;BME280;865;53.672;10.250;2024-03-25T06:44:29;99947.22;;;4.60;100.00
1736;BME280;865;53.672;10.250;2024-03-25T06:46:55;99951.53;;;4.59;100.00
1736;BME280;865;53.672;10.250;2024-03-25T06:49:21;99948.81;;;4.73;100.00
1736;BME280;865;53.672;10.250;2024-03-25T06:51:46;99953.03;;;4.83;100.00
1736;BME280;865;53.672;10.250;2024-03-25T06:54:12;99956.44;;;4.88;100.00
1736;BME280;865;53.672;10.250;2024-03-25T06:56:38;99965.91;;;4.88;100.00
1736;BME280;865;53.672;10.250;2024-03-25T06:59:03;99963.31;;;4.88;100.00
1736;BME280;865;53.672;10.250;2024-03-25T07:01:29;99966.78;;;4.88;100.00
1736;BME280;865;53.672;10.250;2024-03-25T07:03:54;99975.38;;;4.92;100.00
1736;BME280;865;53.672;10.250;2024-03-25T07:06:20;99979.59;;;4.99;100.00
1736;BME280;865;53.672;10.250;2024-03-25T07:08:45;99979.44;;;5.16;100.00
1736;BME280;865;53.672;10.250;2024-03-25T07:11:13;99988.06;;;5.18;100.00
1736;BME280;865;53.672;10.250;2024-03-25T07:13:38;99988.88;;;5.21;100.00
1736;BME280;865;53.672;10.250;2024-03-25T07:16:04;99982.78;;;5.27;100.00
1736;BME280;865;53.672;10.250;2024-03-25T07:18:29;99986.13;;;5.35;100.00
1736;BME280;865;53.672;10.250;2024-03-25T07:20:55;99995.91;;;5.06;100.00
1736;BME280;865;53.672;10.250;2024-03-25T07:23:20;99994.16;;;5.08;100.00
1736;BME280;865;53.672;10.250;2024-03-25T07:25:46;100000.31;;;4.97;100.00
1736;BME280;865;53.672;10.250;2024-03-25T07:28:12;99992.41;;;5.13;100.00
1736;BME280;865;53.672;10.250;2024-03-25T07:30:37;99998.44;;;5.10;100.00
1736;BME280;865;53.672;10.250;2024-03-25T07:33:03;100005.44;;;4.99;100.00
1736;BME280;865;53.672;10.250;2024-03-25T07:35:28;100003.75;;;4.93;100.00
1736;BME280;865;53.672;10.250;2024-03-25T07:37:54;100002.84;;;5.00;100.00
1736;BME280;865;53.672;10.250;2024-03-25T07:40:21;100002.91;;;4.93;100.00
1736;BME280;865;53.672;10.250;2024-03-25T07:42:47;100008.91;;;4.96;100.00
1736;BME280;865;53.672;10.250;2024-03-25T07:45:14;100010.56;;;5.07;100.00
1736;BME280;865;53.672;10.250;2024-03-25T07:47:39;100015.56;;;5.20;100.00
1736;BME280;865;53.672;10.250;2024-03-25T07:50:05;100008.63;;;5.25;100.00
1736;BME280;865;53.672;10.250;2024-03-25T07:52:31;100003.50;;;5.22;100.00
1736;BME280;865;53.672;10.250;2024-03-25T07:54:57;100012.94;;;5.30;100.00
1736;BME280;865;53.672;10.250;2024-03-25T07:57:23;100010.28;;;5.34;100.00
1736;BME280;865;53.672;10.250;2024-03-25T07:59:49;100016.38;;;5.30;100.00
1736;BME280;865;53.672;10.250;2024-03-25T08:02:15;100025.00;;;5.28;100.00
1736;BME280;865;53.672;10.250;2024-03-25T08:04:40;100014.97;;;4.97;100.00
1736;BME280;865;53.672;10.250;2024-03-25T08:07:06;100022.50;;;5.18;100.00
1736;BME280;865;53.672;10.250;2024-03-25T08:09:31;100023.34;;;5.22;100.00
1736;BME280;865;53.672;10.250;2024-03-25T08:11:57;100016.25;;;5.38;100.00
1736;BME280;865;53.672;10.250;2024-03-25T08:14:22;100030.22;;;5.20;100.00
1736;BME280;865;53.672;10.250;2024-03-25T08:16:48;100028.47;;;5.27;100.00
1736;BME280;865;53.672;10.250;2024-03-25T08:19:14;100036.06;;;5.40;100.00
1736;BME280;865;53.672;10.250;2024-03-25T08:21:39;100041.31;;;5.34;100.00
1736;BME280;865;53.672;10.250;2024-03-25T08:24:05;100040.41;;;5.38;100.00
1736;BME280;865;53.672;10.250;2024-03-25T08:26:31;100042.03;;;5.48;100.00
1736;BME280;865;53.672;10.250;2024-03-25T08:28:57;100048.13;;;5.44;100.00
1736;BME280;865;53.672;10.250;2024-03-25T08:31:22;100046.31;;;5.49;100.00
1736;BME280;865;53.672;10.250;2024-03-25T08:33:51;100039.22;;;5.70;100.00
1736;BME280;865;53.672;10.250;2024-03-25T08:36:17;100043.38;;;5.82;100.00
1736;BME280;865;53.672;10.250;2024-03-25T08:38:43;100046.59;;;6.07;100.00
1736;BME280;865;53.672;10.250;2024-03-25T08:41:09;100045.66;;;6.11;100.00
1736;BME280;865;53.672;10.250;2024-03-25T08:43:35;100050.09;;;6.01;100.00
1736;BME280;865;53.672;10.250;2024-03-25T08:46:00;100055.28;;;6.01;100.00
1736;BME280;865;53.672;10.250;2024-03-25T08:48:26;100061.50;;;5.83;100.00
1736;BME280;865;53.672;10.250;2024-03-25T08:50:52;100070.97;;;5.83;100.00
1736;BME280;865;53.672;10.250;2024-03-25T08:53:17;100074.69;;;5.59;100.00
1736;BME280;865;53.672;10.250;2024-03-25T08:55:46;100073.91;;;5.54;100.00
1736;BME280;865;53.672;10.250;2024-03-25T08:58:13;100069.69;;;5.40;100.00
1736;BME280;865;53.672;10.250;2024-03-25T09:00:38;100069.72;;;5.37;100.00
1736;BME280;865;53.672;10.250;2024-03-25T09:03:04;100072.13;;;5.56;100.00
1736;BME280;865;53.672;10.250;2024-03-25T09:05:30;100066.81;;;5.68;100.00
1736;BME280;865;53.672;10.250;2024-03-25T09:07:56;100064.28;;;5.63;100.00
1736;BME280;865;53.672;10.250;2024-03-25T09:10:24;100064.19;;;5.74;100.00
1736;BME280;865;53.672;10.250;2024-03-25T09:13:08;100059.69;;;5.88;100.00
1736;BME280;865;53.672;10.250;2024-03-25T09:15:34;100062.09;;;6.10;100.00
1736;BME280;865;53.672;10.250;2024-03-25T09:18:00;100062.53;;;6.43;100.00
1736;BME280;865;53.672;10.250;2024-03-25T09:20:25;100061.50;;;6.53;100.00
1736;BME280;865;53.672;10.250;2024-03-25T09:22:52;100068.97;;;6.09;100.00
1736;BME280;865;53.672;10.250;2024-03-25T09:25:18;100063.94;;;5.99;100.00
1736;BME280;865;53.672;10.250;2024-03-25T09:27:50;100063.38;;;6.43;100.00
1736;BME280;865;53.672;10.250;2024-03-25T09:30:17;100067.53;;;6.55;100.00
1736;BME280;865;53.672;10.250;2024-03-25T09:32:45;100069.19;;;6.59;100.00
1736;BME280;865;53.672;10.250;2024-03-25T09:35:12;100095.94;;;5.90;100.00
1736;BME280;865;53.672;10.250;2024-03-25T09:37:37;100099.66;;;5.61;100.00
1736;BME280;865;53.672;10.250;2024-03-25T09:40:04;100102.59;;;5.23;100.00
1736;BME280;865;53.672;10.250;2024-03-25T09:42:47;100102.69;;;5.14;100.00
1736;BME280;865;53.672;10.250;2024-03-25T09:45:16;100107.97;;;5.00;100.00
1736;BME280;865;53.672;10.250;2024-03-25T09:47:45;100102.06;;;4.81;100.00
1736;BME280;865;53.672;10.250;2024-03-25T09:50:12;100090.72;;;5.00;100.00
1736;BME280;865;53.672;10.250;2024-03-25T09:52:38;100098.56;;;4.91;100.00
1736;BME280;865;53.672;10.250;2024-03-25T09:55:03;100095.88;;;5.03;100.00
1736;BME280;865;53.672;10.250;2024-03-25T09:57:29;100101.75;;;5.22;100.00
1736;BME280;865;53.672;10.250;2024-03-25T09:59:55;100096.38;;;5.44;100.00
1736;BME280;865;53.672;10.250;2024-03-25T10:02:21;100098.03;;;5.53;100.00
1736;BME280;865;53.672;10.250;2024-03-25T10:04:51;100100.44;;;5.74;100.00
1736;BME280;865;53.672;10.250;2024-03-25T10:07:24;100101.19;;;5.84;100.00
1736;BME280;865;53.672;10.250;2024-03-25T10:09:50;100103.56;;;6.07;100.00
1736;BME280;865;53.672;10.250;2024-03-25T10:12:15;100102.44;;;6.26;100.00
1736;BME280;865;53.672;10.250;2024-03-25T10:14:42;100100.88;;;6.13;100.00
1736;BME280;865;53.672;10.250;2024-03-25T10:17:07;100094.66;;;6.26;100.00
1736;BME280;865;53.672;10.250;2024-03-25T10:19:33;100099.81;;;6.29;100.00
1736;BME280;865;53.672;10.250;2024-03-25T10:22:07;100091.84;;;6.45;100.00
1736;BME280;865;53.672;10.250;2024-03-25T10:24:45;100089.91;;;6.59;100.00
1736;BME280;865;53.672;10.250;2024-03-25T10:27:19;100094.28;;;6.55;100.00
1736;BME280;865;53.672;10.250;2024-03-25T10:29:48;100092.53;;;6.57;100.00
1736;BME280;865;53.672;10.250;2024-03-25T10:32:14;100092.78;;;6.99;100.00
1736;BME280;865;53.672;10.250;2024-03-25T10:34:40;100089.31;;;6.99;100.00
1736;BME280;865;53.672;10.250;2024-03-25T10:37:09;100097.22;;;6.91;100.00
1736;BME280;865;53.672;10.250;2024-03-25T10:39:39;100089.50;;;6.87;100.00
1736;BME280;865;53.672;10.250;2024-03-25T10:42:07;100090.28;;;6.92;100.00
1736;BME280;865;53.672;10.250;2024-03-25T10:44:33;100102.88;;;6.60;100.00
1736;BME280;865;53.672;10.250;2024-03-25T10:47:01;100111.28;;;6.75;100.00
1736;BME280;865;53.672;10.250;2024-03-25T10:52:00;100109.84;;;6.55;100.00
1736;BME280;865;53.672;10.250;2024-03-25T10:54:29;100106.13;;;6.73;100.00
1736;BME280;865;53.672;10.250;2024-03-25T10:56:58;100107.38;;;6.46;100.00
1736;BME280;865;53.672;10.250;2024-03-25T10:59:25;100095.81;;;6.69;100.00
1736;BME280;865;53.672;10.250;2024-03-25T11:01:52;100102.91;;;7.13;100.00
1736;BME280;865;53.672;10.250;2024-03-25T11:04:20;100097.03;;;7.05;100.00
1736;BME280;865;53.672;10.250;2024-03-25T11:06:46;100091.22;;;7.40;100.00
1736;BME280;865;53.672;10.250;2024-03-25T11:09:22;100093.28;;;7.23;100.00
1736;BME280;865;53.672;10.250;2024-03-25T11:11:52;100097.34;;;7.38;100.00
1736;BME280;865;53.672;10.250;2024-03-25T11:14:17;100094.59;;;7.45;100.00
1736;BME280;865;53.672;10.250;2024-03-25T11:16:43;100089.81;;;7.22;100.00
1736;BME280;865;53.672;10.250;2024-03-25T11:19:10;100101.66;;;7.37;100.00
1736;BME280;865;53.672;10.250;2024-03-25T11:21:36;100093.97;;;7.31;100.00
1736;BME280;865;53.672;10.250;2024-03-25T11:24:08;100099.72;;;7.50;100.00
1736;BME280;865;53.672;10.250;2024-03-25T11:26:34;100093.28;;;7.21;100.00
1736;BME280;865;53.672;10.250;2024-03-25T11:29:02;100092.06;;;7.44;100.00
1736;BME280;865;53.672;10.250;2024-03-25T11:31:29;100097.59;;;7.72;100.00
1736;BME280;865;53.672;10.250;2024-03-25T11:33:55;100094.81;;;7.83;100.00
1736;BME280;865;53.672;10.250;2024-03-25T11:36:22;100086.78;;;7.95;100.00
1736;BME280;865;53.672;10.250;2024-03-25T11:39:02;100086.78;;;7.95;100.00
1736;BME280;865;53.672;10.250;2024-03-25T11:41:41;100081.91;;;8.21;100.00
1736;BME280;865;53.672;10.250;2024-03-25T11:44:11;100068.44;;;8.44;100.00
1736;BME280;865;53.672;10.250;2024-03-25T11:46:39;100066.09;;;8.32;100.00
1736;BME280;865;53.672;10.250;2024-03-25T11:49:12;100068.97;;;8.60;100.00
1736;BME280;865;53.672;10.250;2024-03-25T11:51:38;100069.56;;;8.31;100.00
1736;BME280;865;53.672;10.250;2024-03-25T11:54:07;100071.59;;;8.17;100.00
1736;BME280;865;53.672;10.250;2024-03-25T11:56:33;100076.84;;;8.15;100.00
1736;BME280;865;53.672;10.250;2024-03-25T11:59:01;100073.34;;;8.16;100.00
1736;BME280;865;53.672;10.250;2024-03-25T12:01:28;100078.28;;;8.29;100.00
1736;BME280;865;53.672;10.250;2024-03-25T12:03:54;100081.84;;;8.25;100.00
1736;BME280;865;53.672;10.250;2024-03-25T12:06:19;100083.41;;;7.90;100.00
1736;BME280;865;53.672;10.250;2024-03-25T12:08:45;100080.94;;;7.84;100.00
1736;BME280;865;53.672;10.250;2024-03-25T12:11:31;100084.69;;;7.67;100.00
1736;BME280;865;53.672;10.250;2024-03-25T12:13:57;100078.22;;;7.90;100.00
1736;BME280;865;53.672;10.250;2024-03-25T12:16:23;100070.47;;;8.30;100.00
1736;BME280;865;53.672;10.250;2024-03-25T12:18:49;100068.50;;;8.80;100.00
1736;BME280;865;53.672;10.250;2024-03-25T12:21:14;100064.09;;;8.84;100.00
1736;BME280;865;53.672;10.250;2024-03-25T12:23:42;100055.44;;;8.44;100.00
1736;BME280;865;53.672;10.250;2024-03-25T12:26:07;100061.19;;;8.18;100.00
1736;BME280;865;53.672;10.250;2024-03-25T12:28:33;100058.19;;;8.38;100.00
1736;BME280;865;53.672;10.250;2024-03-25T12:31:07;100056.66;;;8.28;100.00
1736;BME280;865;53.672;10.250;2024-03-25T12:33:45;100066.75;;;8.43;100.00
1736;BME280;865;53.672;10.250;2024-03-25T12:36:12;100060.38;;;8.15;100.00
1736;BME280;865;53.672;10.250;2024-03-25T12:38:38;100056.47;;;7.94;100.00
1736;BME280;865;53.672;10.250;2024-03-25T12:41:05;100059.78;;;8.04;100.00
1736;BME280;865;53.672;10.250;2024-03-25T12:43:32;100064.66;;;8.17;100.00
1736;BME280;865;53.672;10.250;2024-03-25T12:46:01;100062.25;;;8.08;100.00
1736;BME280;865;53.672;10.250;2024-03-25T12:48:29;100061.06;;;8.25;100.00
1736;BME280;865;53.672;10.250;2024-03-25T12:50:54;100060.53;;;8.51;100.00
1736;BME280;865;53.672;10.250;2024-03-25T12:53:20;100057.44;;;8.72;100.00
1736;BME280;865;53.672;10.250;2024-03-25T12:55:46;100064.50;;;8.65;100.00
1736;BME280;865;53.672;10.250;2024-03-25T12:58:12;100059.91;;;8.38;100.00
1736;BME280;865;53.672;10.250;2024-03-25T13:00:38;100058.59;;;8.18;100.00
1736;BME280;865;53.672;10.250;2024-03-25T13:03:05;100068.00;;;8.24;100.00
1736;BME280;865;53.672;10.250;2024-03-25T13:05:32;100053.66;;;8.06;100.00
1736;BME280;865;53.672;10.250;2024-03-25T13:07:57;100053.16;;;8.29;100.00
1736;BME280;865;53.672;10.250;2024-03-25T13:10:23;100054.59;;;8.46;100.00
1736;BME280;865;53.672;10.250;2024-03-25T13:12:48;100043.53;;;8.75;100.00
1736;BME280;865;53.672;10.250;2024-03-25T13:15:14;100043.88;;;8.95;100.00
1736;BME280;865;53.672;10.250;2024-03-25T13:17:39;100050.34;;;9.15;100.00